sensor_id;sensor_type;location;lat;lon;timestamp;P1;durP1;ratioP1;P2;durP2;ratioP2
37855;SDS011;23694;43.274;26.924;2022-07-06T00:01:49;4.80;;;3.30;;
37855;SDS011;23694;43.274;26.924;2022-07-06T00:04:19;4.37;;;3.17;;
37855;SDS011;23694;43.274;26.924;2022-07-06T00:06:46;4.30;;;3.50;;
37855;SDS011;23694;43.274;26.924;2022-07-06T00:09:12;5.00;;;3.37;;
37855;SDS011;23694;43.274;26.924;2022-07-06T00:11:38;5.47;;;3.30;;
37855;SDS011;23694;43.274;26.924;2022-07-06T00:14:04;9.63;;;3.53;;
37855;SDS011;23694;43.274;26.924;2022-07-06T00:16:31;6.53;;;3.47;;
37855;SDS011;23694;43.274;26.924;2022-07-06T00:18:58;6.37;;;3.17;;
37855;SDS011;23694;43.274;26.924;2022-07-06T00:21:24;4.20;;;3.30;;
37855;SDS011;23694;43.274;26.924;2022-07-06T00:23:50;5.00;;;3.50;;
37855;SDS011;23694;43.274;26.924;2022-07-06T00:26:20;4.27;;;3.47;;
37855;SDS011;23694;43.274;26.924;2022-07-06T00:28:46;6.20;;;3.50;;
37855;SDS011;23694;43.274;26.924;2022-07-06T00:31:12;4.83;;;3.17;;
37855;SDS011;23694;43.274;26.924;2022-07-06T00:33:38;7.23;;;3.53;;
37855;SDS011;23694;43.274;26.924;2022-07-06T00:36:04;5.90;;;3.30;;
37855;SDS011;23694;43.274;26.924;2022-07-06T00:38:31;5.20;;;3.40;;
37855;SDS011;23694;43.274;26.924;2022-07-06T00:40:57;4.37;;;3.00;;
37855;SDS011;23694;43.274;26.924;2022-07-06T00:43:23;4.03;;;3.60;;
37855;SDS011;23694;43.274;26.924;2022-07-06T00:45:49;5.13;;;3.67;;
37855;SDS011;23694;43.274;26.924;2022-07-06T00:48:15;4.77;;;3.13;;
37855;SDS011;23694;43.274;26.924;2022-07-06T00:50:42;6.00;;;3.50;;
37855;SDS011;23694;43.274;26.924;2022-07-06T00:53:08;6.40;;;3.30;;
37855;SDS011;23694;43.274;26.924;2022-07-06T00:55:36;5.53;;;3.60;;
37855;SDS011;23694;43.274;26.924;2022-07-06T00:58:06;5.50;;;3.83;;
37855;SDS011;23694;43.274;26.924;2022-07-06T01:00:34;5.63;;;3.70;;
37855;SDS011;23694;43.274;26.924;2022-07-06T01:03:00;4.47;;;3.43;;
37855;SDS011;23694;43.274;26.924;2022-07-06T01:05:27;4.77;;;3.80;;
37855;SDS011;23694;43.274;26.924;2022-07-06T01:07:54;5.57;;;3.77;;
37855;SDS011;23694;43.274;26.924;2022-07-06T01:10:21;4.50;;;3.43;;
37855;SDS011;23694;43.274;26.924;2022-07-06T01:12:48;4.87;;;3.70;;
37855;SDS011;23694;43.274;26.924;2022-07-06T01:15:15;7.47;;;3.60;;
37855;SDS011;23694;43.274;26.924;2022-07-06T01:17:43;4.97;;;3.57;;
37855;SDS011;23694;43.274;26.924;2022-07-06T01:22:36;6.27;;;4.00;;
37855;SDS011;23694;43.274;26.924;2022-07-06T01:25:03;5.67;;;4.37;;
37855;SDS011;23694;43.274;26.924;2022-07-06T01:27:30;4.90;;;4.00;;
37855;SDS011;23694;43.274;26.924;2022-07-06T01:29:57;4.20;;;3.80;;
37855;SDS011;23694;43.274;26.924;2022-07-06T01:32:23;7.00;;;3.60;;
37855;SDS011;23694;43.274;26.924;2022-07-06T01:34:49;5.13;;;4.03;;
37855;SDS011;23694;43.274;26.924;2022-07-06T01:37:15;6.33;;;3.67;;
37855;SDS011;23694;43.274;26.924;2022-07-06T01:39:41;6.53;;;3.60;;
37855;SDS011;23694;43.274;26.924;2022-07-06T01:42:07;4.57;;;3.77;;
37855;SDS011;23694;43.274;26.924;2022-07-06T01:44:33;8.83;;;3.87;;
37855;SDS011;23694;43.274;26.924;2022-07-06T01:46:59;7.97;;;4.37;;
37855;SDS011;23694;43.274;26.924;2022-07-06T01:49:25;4.97;;;3.57;;
37855;SDS011;23694;43.274;26.924;2022-07-06T01:51:51;6.80;;;3.83;;
37855;SDS011;23694;43.274;26.924;2022-07-06T01:54:17;9.97;;;4.30;;
37855;SDS011;23694;43.274;26.924;2022-07-06T01:56:43;7.20;;;4.23;;
37855;SDS011;23694;43.274;26.924;2022-07-06T01:59:09;7.97;;;4.50;;
37855;SDS011;23694;43.274;26.924;2022-07-06T02:01:35;6.97;;;3.90;;
37855;SDS011;23694;43.274;26.924;2022-07-06T02:04:01;6.63;;;3.83;;
37855;SDS011;23694;43.274;26.924;2022-07-06T02:06:28;6.20;;;3.67;;
37855;SDS011;23694;43.274;26.924;2022-07-06T02:08:54;4.00;;;3.30;;
37855;SDS011;23694;43.274;26.924;2022-07-06T02:11:20;6.13;;;3.60;;
37855;SDS011;23694;43.274;26.924;2022-07-06T02:13:46;8.60;;;3.57;;
37855;SDS011;23694;43.274;26.924;2022-07-06T02:16:12;8.60;;;3.63;;
37855;SDS011;23694;43.274;26.924;2022-07-06T02:18:39;5.33;;;3.63;;
37855;SDS011;23694;43.274;26.924;2022-07-06T02:21:05;5.43;;;3.77;;
37855;SDS011;23694;43.274;26.924;2022-07-06T02:23:31;8.37;;;3.60;;
37855;SDS011;23694;43.274;26.924;2022-07-06T02:25:57;6.37;;;3.73;;
37855;SDS011;23694;43.274;26.924;2022-07-06T02:28:23;6.27;;;3.63;;
37855;SDS011;23694;43.274;26.924;2022-07-06T02:30:49;8.43;;;4.17;;
37855;SDS011;23694;43.274;26.924;2022-07-06T02:33:15;6.90;;;3.87;;
37855;SDS011;23694;43.274;26.924;2022-07-06T02:35:41;5.27;;;3.37;;
37855;SDS011;23694;43.274;26.924;2022-07-06T02:38:11;8.00;;;4.07;;
37855;SDS011;23694;43.274;26.924;2022-07-06T02:40:37;9.13;;;4.20;;
37855;SDS011;23694;43.274;26.924;2022-07-06T02:43:04;4.87;;;3.43;;
37855;SDS011;23694;43.274;26.924;2022-07-06T02:45:30;10.87;;;4.33;;
37855;SDS011;23694;43.274;26.924;2022-07-06T02:47:57;8.07;;;4.00;;
37855;SDS011;23694;43.274;26.924;2022-07-06T02:50:23;10.20;;;4.10;;
37855;SDS011;23694;43.274;26.924;2022-07-06T02:52:50;9.80;;;3.90;;
37855;SDS011;23694;43.274;26.924;2022-07-06T02:55:16;5.97;;;3.73;;
37855;SDS011;23694;43.274;26.924;2022-07-06T02:57:42;6.73;;;3.93;;
37855;SDS011;23694;43.274;26.924;2022-07-06T03:00:09;5.57;;;3.77;;
37855;SDS011;23694;43.274;26.924;2022-07-06T03:02:36;12.50;;;4.20;;
37855;SDS011;23694;43.274;26.924;2022-07-06T03:05:02;6.00;;;3.70;;
37855;SDS011;23694;43.274;26.924;2022-07-06T03:07:29;6.67;;;3.93;;
37855;SDS011;23694;43.274;26.924;2022-07-06T03:09:55;10.33;;;4.33;;
37855;SDS011;23694;43.274;26.924;2022-07-06T03:12:21;9.03;;;4.23;;
37855;SDS011;23694;43.274;26.924;2022-07-06T03:14:47;5.73;;;4.13;;
37855;SDS011;23694;43.274;26.924;2022-07-06T03:17:13;11.13;;;5.10;;
37855;SDS011;23694;43.274;26.924;2022-07-06T03:19:39;12.13;;;4.43;;
37855;SDS011;23694;43.274;26.924;2022-07-06T03:22:05;11.13;;;5.03;;
37855;SDS011;23694;43.274;26.924;2022-07-06T03:24:31;8.70;;;4.60;;
37855;SDS011;23694;43.274;26.924;2022-07-06T03:26:57;9.63;;;4.97;;
37855;SDS011;23694;43.274;26.924;2022-07-06T03:29:23;10.23;;;4.90;;
37855;SDS011;23694;43.274;26.924;2022-07-06T03:31:50;12.43;;;5.20;;
37855;SDS011;23694;43.274;26.924;2022-07-06T03:34:16;8.50;;;4.70;;
37855;SDS011;23694;43.274;26.924;2022-07-06T03:36:42;14.80;;;5.47;;
37855;SDS011;23694;43.274;26.924;2022-07-06T03:39:08;9.40;;;5.33;;
37855;SDS011;23694;43.274;26.924;2022-07-06T03:41:34;15.43;;;5.27;;
37855;SDS011;23694;43.274;26.924;2022-07-06T03:44:00;11.83;;;5.93;;
37855;SDS011;23694;43.274;26.924;2022-07-06T03:46:27;7.63;;;4.83;;
37855;SDS011;23694;43.274;26.924;2022-07-06T03:48:54;10.10;;;5.63;;
37855;SDS011;23694;43.274;26.924;2022-07-06T03:51:20;10.97;;;5.47;;
37855;SDS011;23694;43.274;26.924;2022-07-06T03:53:46;11.33;;;5.60;;
37855;SDS011;23694;43.274;26.924;2022-07-06T03:56:12;11.80;;;5.53;;
37855;SDS011;23694;43.274;26.924;2022-07-06T03:58:54;9.98;;;6.88;;
37855;SDS011;23694;43.274;26.924;2022-07-06T04:01:21;17.43;;;7.70;;
37855;SDS011;23694;43.274;26.924;2022-07-06T04:03:47;56.73;;;44.83;;
37855;SDS011;23694;43.274;26.924;2022-07-06T04:06:13;25.37;;;14.97;;
37855;SDS011;23694;43.274;26.924;2022-07-06T04:08:40;11.80;;;7.33;;
37855;SDS011;23694;43.274;26.924;2022-07-06T04:11:06;17.87;;;12.20;;
37855;SDS011;23694;43.274;26.924;2022-07-06T04:13:32;34.17;;;23.17;;
37855;SDS011;23694;43.274;26.924;2022-07-06T04:15:58;12.73;;;8.80;;
37855;SDS011;23694;43.274;26.924;2022-07-06T04:18:25;27.60;;;19.10;;
37855;SDS011;23694;43.274;26.924;2022-07-06T04:20:51;16.47;;;11.77;;
37855;SDS011;23694;43.274;26.924;2022-07-06T04:23:17;20.47;;;15.57;;
37855;SDS011;23694;43.274;26.924;2022-07-06T04:25:43;13.10;;;7.77;;
37855;SDS011;23694;43.274;26.924;2022-07-06T04:28:09;13.00;;;5.90;;
37855;SDS011;23694;43.274;26.924;2022-07-06T04:30:35;14.27;;;6.50;;
37855;SDS011;23694;43.274;26.924;2022-07-06T04:33:01;16.13;;;6.53;;
37855;SDS011;23694;43.274;26.924;2022-07-06T04:35:28;12.23;;;6.30;;
37855;SDS011;23694;43.274;26.924;2022-07-06T04:37:54;11.75;;;6.35;;
37855;SDS011;23694;43.274;26.924;2022-07-06T04:40:20;10.35;;;6.47;;
37855;SDS011;23694;43.274;26.924;2022-07-06T04:42:46;11.77;;;6.60;;
37855;SDS011;23694;43.274;26.924;2022-07-06T04:45:12;11.80;;;6.47;;
37855;SDS011;23694;43.274;26.924;2022-07-06T04:47:38;12.55;;;5.93;;
37855;SDS011;23694;43.274;26.924;2022-07-06T04:50:04;11.25;;;6.68;;
37855;SDS011;23694;43.274;26.924;2022-07-06T04:52:31;12.70;;;6.10;;
37855;SDS011;23694;43.274;26.924;2022-07-06T04:54:57;13.63;;;6.40;;
37855;SDS011;23694;43.274;26.924;2022-07-06T04:57:23;15.50;;;7.15;;
37855;SDS011;23694;43.274;26.924;2022-07-06T04:59:51;13.77;;;6.20;;
37855;SDS011;23694;43.274;26.924;2022-07-06T05:02:18;12.38;;;6.07;;
37855;SDS011;23694;43.274;26.924;2022-07-06T05:04:44;14.82;;;6.65;;
37855;SDS011;23694;43.274;26.924;2022-07-06T05:07:10;15.50;;;6.55;;
37855;SDS011;23694;43.274;26.924;2022-07-06T05:09:36;14.35;;;6.53;;
37855;SDS011;23694;43.274;26.924;2022-07-06T05:12:02;15.10;;;6.35;;
37855;SDS011;23694;43.274;26.924;2022-07-06T05:14:29;16.77;;;6.15;;
37855;SDS011;23694;43.274;26.924;2022-07-06T05:16:55;13.20;;;6.20;;
37855;SDS011;23694;43.274;26.924;2022-07-06T05:19:21;9.20;;;6.35;;
37855;SDS011;23694;43.274;26.924;2022-07-06T05:21:47;15.35;;;7.05;;
37855;SDS011;23694;43.274;26.924;2022-07-06T05:24:13;9.35;;;6.38;;
37855;SDS011;23694;43.274;26.924;2022-07-06T05:26:41;10.43;;;6.35;;
37855;SDS011;23694;43.274;26.924;2022-07-06T05:29:07;12.82;;;6.50;;
37855;SDS011;23694;43.274;26.924;2022-07-06T05:31:34;13.30;;;7.05;;
37855;SDS011;23694;43.274;26.924;2022-07-06T05:34:00;14.02;;;7.55;;
37855;SDS011;23694;43.274;26.924;2022-07-06T05:36:26;12.45;;;6.65;;
37855;SDS011;23694;43.274;26.924;2022-07-06T05:38:52;17.02;;;7.53;;
37855;SDS011;23694;43.274;26.924;2022-07-06T05:41:18;13.88;;;7.25;;
37855;SDS011;23694;43.274;26.924;2022-07-06T05:43:44;16.23;;;6.95;;
37855;SDS011;23694;43.274;26.924;2022-07-06T05:46:10;15.60;;;7.47;;
37855;SDS011;23694;43.274;26.924;2022-07-06T05:48:36;17.17;;;6.95;;
37855;SDS011;23694;43.274;26.924;2022-07-06T05:51:20;25.20;;;7.43;;
37855;SDS011;23694;43.274;26.924;2022-07-06T05:53:46;21.25;;;6.95;;
37855;SDS011;23694;43.274;26.924;2022-07-06T05:56:13;14.57;;;6.90;;
37855;SDS011;23694;43.274;26.924;2022-07-06T05:58:39;15.43;;;7.47;;
37855;SDS011;23694;43.274;26.924;2022-07-06T06:01:05;15.63;;;7.50;;
37855;SDS011;23694;43.274;26.924;2022-07-06T06:03:34;20.85;;;8.57;;
37855;SDS011;23694;43.274;26.924;2022-07-06T06:06:00;16.23;;;7.78;;
37855;SDS011;23694;43.274;26.924;2022-07-06T06:08:26;18.13;;;7.93;;
37855;SDS011;23694;43.274;26.924;2022-07-06T06:10:52;11.63;;;6.47;;
37855;SDS011;23694;43.274;26.924;2022-07-06T06:13:19;12.93;;;8.85;;
37855;SDS011;23694;43.274;26.924;2022-07-06T06:15:45;13.63;;;8.10;;
37855;SDS011;23694;43.274;26.924;2022-07-06T06:18:11;17.33;;;7.35;;
37855;SDS011;23694;43.274;26.924;2022-07-06T06:20:37;15.23;;;7.80;;
37855;SDS011;23694;43.274;26.924;2022-07-06T06:23:03;16.50;;;7.57;;
37855;SDS011;23694;43.274;26.924;2022-07-06T06:25:33;12.30;;;7.55;;
37855;SDS011;23694;43.274;26.924;2022-07-06T06:30:28;15.00;;;7.93;;
37855;SDS011;23694;43.274;26.924;2022-07-06T06:33:07;13.75;;;7.78;;
37855;SDS011;23694;43.274;26.924;2022-07-06T06:35:38;14.48;;;7.43;;
37855;SDS011;23694;43.274;26.924;2022-07-06T06:38:11;16.95;;;8.45;;
37855;SDS011;23694;43.274;26.924;2022-07-06T06:40:38;13.90;;;7.72;;
37855;SDS011;23694;43.274;26.924;2022-07-06T06:43:04;17.95;;;7.47;;
37855;SDS011;23694;43.274;26.924;2022-07-06T06:45:31;17.38;;;7.82;;
37855;SDS011;23694;43.274;26.924;2022-07-06T06:47:57;18.55;;;8.10;;
37855;SDS011;23694;43.274;26.924;2022-07-06T06:50:23;15.80;;;8.48;;
37855;SDS011;23694;43.274;26.924;2022-07-06T06:52:50;14.13;;;7.53;;
37855;SDS011;23694;43.274;26.924;2022-07-06T06:55:17;10.48;;;7.10;;
37855;SDS011;23694;43.274;26.924;2022-07-06T06:57:43;15.52;;;8.05;;
37855;SDS011;23694;43.274;26.924;2022-07-06T07:00:10;13.05;;;7.65;;
37855;SDS011;23694;43.274;26.924;2022-07-06T07:02:37;20.23;;;8.50;;
37855;SDS011;23694;43.274;26.924;2022-07-06T07:05:04;14.05;;;7.68;;
37855;SDS011;23694;43.274;26.924;2022-07-06T07:07:31;16.73;;;7.65;;
37855;SDS011;23694;43.274;26.924;2022-07-06T07:09:58;13.38;;;7.65;;
37855;SDS011;23694;43.274;26.924;2022-07-06T07:12:25;11.20;;;7.80;;
37855;SDS011;23694;43.274;26.924;2022-07-06T07:14:51;11.57;;;8.52;;
37855;SDS011;23694;43.274;26.924;2022-07-06T07:17:17;17.05;;;7.95;;
37855;SDS011;23694;43.274;26.924;2022-07-06T07:19:43;10.68;;;7.22;;
37855;SDS011;23694;43.274;26.924;2022-07-06T07:22:09;13.40;;;7.03;;
37855;SDS011;23694;43.274;26.924;2022-07-06T07:24:35;10.60;;;8.02;;
37855;SDS011;23694;43.274;26.924;2022-07-06T07:27:01;11.38;;;7.85;;
37855;SDS011;23694;43.274;26.924;2022-07-06T07:29:28;12.90;;;8.07;;
37855;SDS011;23694;43.274;26.924;2022-07-06T07:31:54;11.43;;;7.40;;
37855;SDS011;23694;43.274;26.924;2022-07-06T07:34:20;10.45;;;7.10;;
37855;SDS011;23694;43.274;26.924;2022-07-06T07:36:46;11.88;;;7.72;;
37855;SDS011;23694;43.274;26.924;2022-07-06T07:39:12;14.85;;;7.38;;
37855;SDS011;23694;43.274;26.924;2022-07-06T07:41:38;10.70;;;7.78;;
37855;SDS011;23694;43.274;26.924;2022-07-06T07:44:05;10.25;;;6.97;;
37855;SDS011;23694;43.274;26.924;2022-07-06T07:46:31;12.43;;;7.70;;
37855;SDS011;23694;43.274;26.924;2022-07-06T07:48:58;11.18;;;7.22;;
37855;SDS011;23694;43.274;26.924;2022-07-06T07:51:24;11.20;;;6.88;;
37855;SDS011;23694;43.274;26.924;2022-07-06T07:53:50;10.80;;;7.90;;
37855;SDS011;23694;43.274;26.924;2022-07-06T07:56:16;13.02;;;7.13;;
37855;SDS011;23694;43.274;26.924;2022-07-06T07:58:42;14.73;;;7.25;;
37855;SDS011;23694;43.274;26.924;2022-07-06T08:01:08;10.95;;;7.20;;
37855;SDS011;23694;43.274;26.924;2022-07-06T08:03:35;13.75;;;6.60;;
37855;SDS011;23694;43.274;26.924;2022-07-06T08:06:01;13.02;;;6.22;;
37855;SDS011;23694;43.274;26.924;2022-07-06T08:08:27;9.55;;;6.60;;
37855;SDS011;23694;43.274;26.924;2022-07-06T08:10:53;9.38;;;5.90;;
37855;SDS011;23694;43.274;26.924;2022-07-06T08:13:19;9.65;;;5.85;;
37855;SDS011;23694;43.274;26.924;2022-07-06T08:15:45;9.07;;;5.53;;
37855;SDS011;23694;43.274;26.924;2022-07-06T08:18:11;11.20;;;6.05;;
37855;SDS011;23694;43.274;26.924;2022-07-06T08:20:37;10.90;;;6.60;;
37855;SDS011;23694;43.274;26.924;2022-07-06T08:23:04;11.10;;;5.78;;
37855;SDS011;23694;43.274;26.924;2022-07-06T08:25:30;8.70;;;6.28;;
37855;SDS011;23694;43.274;26.924;2022-07-06T08:27:56;6.78;;;5.82;;
37855;SDS011;23694;43.274;26.924;2022-07-06T08:30:23;7.35;;;6.00;;
37855;SDS011;23694;43.274;26.924;2022-07-06T08:32:49;9.70;;;5.38;;
37855;SDS011;23694;43.274;26.924;2022-07-06T08:35:15;9.30;;;6.07;;
37855;SDS011;23694;43.274;26.924;2022-07-06T08:37:41;7.00;;;5.80;;
37855;SDS011;23694;43.274;26.924;2022-07-06T08:40:08;6.70;;;5.13;;
37855;SDS011;23694;43.274;26.924;2022-07-06T08:42:35;6.00;;;4.53;;
37855;SDS011;23694;43.274;26.924;2022-07-06T08:45:03;5.93;;;4.28;;
37855;SDS011;23694;43.274;26.924;2022-07-06T08:47:31;6.13;;;4.28;;
37855;SDS011;23694;43.274;26.924;2022-07-06T08:49:57;5.55;;;4.35;;
37855;SDS011;23694;43.274;26.924;2022-07-06T08:52:24;5.40;;;4.10;;
37855;SDS011;23694;43.274;26.924;2022-07-06T08:54:50;5.60;;;4.47;;
37855;SDS011;23694;43.274;26.924;2022-07-06T08:57:17;8.55;;;5.78;;
37855;SDS011;23694;43.274;26.924;2022-07-06T08:59:43;6.68;;;6.00;;
37855;SDS011;23694;43.274;26.924;2022-07-06T09:02:10;8.90;;;5.90;;
37855;SDS011;23694;43.274;26.924;2022-07-06T09:04:37;7.45;;;4.75;;
37855;SDS011;23694;43.274;26.924;2022-07-06T09:07:03;6.95;;;4.97;;
37855;SDS011;23694;43.274;26.924;2022-07-06T09:09:30;10.18;;;6.05;;
37855;SDS011;23694;43.274;26.924;2022-07-06T09:11:59;10.15;;;6.43;;
37855;SDS011;23694;43.274;26.924;2022-07-06T09:14:25;9.50;;;5.20;;
37855;SDS011;23694;43.274;26.924;2022-07-06T09:17:00;5.18;;;4.18;;
37855;SDS011;23694;43.274;26.924;2022-07-06T09:19:32;10.20;;;4.32;;
37855;SDS011;23694;43.274;26.924;2022-07-06T09:21:59;6.78;;;5.43;;
37855;SDS011;23694;43.274;26.924;2022-07-06T09:24:26;6.90;;;5.20;;
37855;SDS011;23694;43.274;26.924;2022-07-06T09:26:54;6.95;;;5.57;;
37855;SDS011;23694;43.274;26.924;2022-07-06T09:32:07;8.60;;;5.50;;
37855;SDS011;23694;43.274;26.924;2022-07-06T09:34:43;5.65;;;3.88;;
37855;SDS011;23694;43.274;26.924;2022-07-06T09:37:10;7.10;;;4.35;;
37855;SDS011;23694;43.274;26.924;2022-07-06T09:39:37;8.77;;;5.20;;
37855;SDS011;23694;43.274;26.924;2022-07-06T09:42:04;6.13;;;5.30;;
37855;SDS011;23694;43.274;26.924;2022-07-06T09:44:37;8.30;;;5.28;;
37855;SDS011;23694;43.274;26.924;2022-07-06T09:47:07;6.85;;;5.47;;
37855;SDS011;23694;43.274;26.924;2022-07-06T09:49:37;9.93;;;5.43;;
37855;SDS011;23694;43.274;26.924;2022-07-06T09:52:08;6.07;;;5.00;;
37855;SDS011;23694;43.274;26.924;2022-07-06T09:54:36;9.63;;;7.00;;
37855;SDS011;23694;43.274;26.924;2022-07-06T09:57:04;6.40;;;4.90;;
37855;SDS011;23694;43.274;26.924;2022-07-06T09:59:31;8.85;;;5.43;;
37855;SDS011;23694;43.274;26.924;2022-07-06T10:01:59;10.23;;;5.38;;
37855;SDS011;23694;43.274;26.924;2022-07-06T10:04:27;7.63;;;5.22;;
37855;SDS011;23694;43.274;26.924;2022-07-06T10:06:54;7.70;;;5.00;;
37855;SDS011;23694;43.274;26.924;2022-07-06T10:09:23;6.60;;;5.00;;
37855;SDS011;23694;43.274;26.924;2022-07-06T10:11:51;10.68;;;4.90;;
37855;SDS011;23694;43.274;26.924;2022-07-06T10:14:21;6.70;;;4.80;;
37855;SDS011;23694;43.274;26.924;2022-07-06T10:16:49;6.43;;;4.90;;
37855;SDS011;23694;43.274;26.924;2022-07-06T10:19:17;6.82;;;5.13;;
37855;SDS011;23694;43.274;26.924;2022-07-06T10:21:45;8.00;;;4.82;;
37855;SDS011;23694;43.274;26.924;2022-07-06T10:24:11;6.18;;;5.28;;
37855;SDS011;23694;43.274;26.924;2022-07-06T10:26:38;7.22;;;4.88;;
37855;SDS011;23694;43.274;26.924;2022-07-06T10:29:06;6.97;;;5.00;;
37855;SDS011;23694;43.274;26.924;2022-07-06T10:31:33;8.25;;;5.30;;
37855;SDS011;23694;43.274;26.924;2022-07-06T10:34:01;6.40;;;5.10;;
37855;SDS011;23694;43.274;26.924;2022-07-06T10:36:30;7.63;;;5.35;;
37855;SDS011;23694;43.274;26.924;2022-07-06T10:38:56;8.70;;;5.22;;
37855;SDS011;23694;43.274;26.924;2022-07-06T10:41:30;7.15;;;4.57;;
37855;SDS011;23694;43.274;26.924;2022-07-06T10:43:57;8.23;;;5.53;;
37855;SDS011;23694;43.274;26.924;2022-07-06T10:46:39;7.72;;;5.35;;
37855;SDS011;23694;43.274;26.924;2022-07-06T10:49:14;9.48;;;5.93;;
37855;SDS011;23694;43.274;26.924;2022-07-06T10:51:41;11.15;;;6.15;;
37855;SDS011;23694;43.274;26.924;2022-07-06T10:54:08;7.75;;;5.38;;
37855;SDS011;23694;43.274;26.924;2022-07-06T10:56:39;7.65;;;5.32;;
37855;SDS011;23694;43.274;26.924;2022-07-06T11:04:39;5.97;;;5.25;;
37855;SDS011;23694;43.274;26.924;2022-07-06T11:07:10;7.70;;;5.43;;
37855;SDS011;23694;43.274;26.924;2022-07-06T11:09:37;6.53;;;5.38;;
37855;SDS011;23694;43.274;26.924;2022-07-06T11:12:19;8.48;;;5.20;;
37855;SDS011;23694;43.274;26.924;2022-07-06T11:14:48;6.43;;;4.80;;
37855;SDS011;23694;43.274;26.924;2022-07-06T11:17:16;11.27;;;5.13;;
37855;SDS011;23694;43.274;26.924;2022-07-06T11:22:35;8.32;;;4.88;;
37855;SDS011;23694;43.274;26.924;2022-07-06T11:25:02;10.20;;;7.65;;
37855;SDS011;23694;43.274;26.924;2022-07-06T11:27:29;10.10;;;8.25;;
37855;SDS011;23694;43.274;26.924;2022-07-06T11:29:55;7.32;;;5.85;;
37855;SDS011;23694;43.274;26.924;2022-07-06T11:32:27;6.88;;;5.20;;
37855;SDS011;23694;43.274;26.924;2022-07-06T11:34:53;14.23;;;5.32;;
37855;SDS011;23694;43.274;26.924;2022-07-06T11:37:19;6.70;;;5.30;;
37855;SDS011;23694;43.274;26.924;2022-07-06T11:39:46;14.73;;;11.48;;
37855;SDS011;23694;43.274;26.924;2022-07-06T11:42:14;7.78;;;5.18;;
37855;SDS011;23694;43.274;26.924;2022-07-06T11:44:42;7.95;;;6.68;;
37855;SDS011;23694;43.274;26.924;2022-07-06T11:47:09;7.30;;;5.40;;
37855;SDS011;23694;43.274;26.924;2022-07-06T11:49:37;6.15;;;5.55;;
37855;SDS011;23694;43.274;26.924;2022-07-06T11:52:13;7.07;;;5.03;;
37855;SDS011;23694;43.274;26.924;2022-07-06T11:54:40;8.65;;;5.00;;
37855;SDS011;23694;43.274;26.924;2022-07-06T11:57:10;9.23;;;5.38;;
37855;SDS011;23694;43.274;26.924;2022-07-06T11:59:38;13.15;;;6.07;;
37855;SDS011;23694;43.274;26.924;2022-07-06T12:02:06;7.85;;;5.30;;
37855;SDS011;23694;43.274;26.924;2022-07-06T12:04:33;6.18;;;5.25;;
37855;SDS011;23694;43.274;26.924;2022-07-06T12:07:02;6.20;;;5.13;;
37855;SDS011;23694;43.274;26.924;2022-07-06T12:09:30;9.82;;;6.13;;
37855;SDS011;23694;43.274;26.924;2022-07-06T12:11:57;11.20;;;5.80;;
37855;SDS011;23694;43.274;26.924;2022-07-06T12:14:23;6.05;;;5.32;;
37855;SDS011;23694;43.274;26.924;2022-07-06T12:16:49;5.80;;;5.25;;
37855;SDS011;23694;43.274;26.924;2022-07-06T12:19:16;9.68;;;5.22;;
37855;SDS011;23694;43.274;26.924;2022-07-06T12:21:43;8.52;;;5.53;;
37855;SDS011;23694;43.274;26.924;2022-07-06T12:24:20;7.68;;;5.88;;
37855;SDS011;23694;43.274;26.924;2022-07-06T12:26:47;12.20;;;10.95;;
37855;SDS011;23694;43.274;26.924;2022-07-06T12:29:14;7.38;;;6.18;;
37855;SDS011;23694;43.274;26.924;2022-07-06T12:34:22;6.97;;;6.28;;
37855;SDS011;23694;43.274;26.924;2022-07-06T12:36:50;6.93;;;5.47;;
37855;SDS011;23694;43.274;26.924;2022-07-06T12:39:20;11.10;;;5.70;;
37855;SDS011;23694;43.274;26.924;2022-07-06T12:41:51;6.60;;;5.45;;
37855;SDS011;23694;43.274;26.924;2022-07-06T12:44:22;5.90;;;5.35;;
37855;SDS011;23694;43.274;26.924;2022-07-06T12:47:05;8.73;;;5.45;;
37855;SDS011;23694;43.274;26.924;2022-07-06T12:49:33;6.22;;;5.13;;
37855;SDS011;23694;43.274;26.924;2022-07-06T12:54:39;8.85;;;5.88;;
37855;SDS011;23694;43.274;26.924;2022-07-06T12:59:39;10.60;;;6.47;;
37855;SDS011;23694;43.274;26.924;2022-07-06T13:02:23;6.22;;;5.07;;
37855;SDS011;23694;43.274;26.924;2022-07-06T13:04:56;7.72;;;5.63;;
37855;SDS011;23694;43.274;26.924;2022-07-06T13:09:53;6.45;;;5.50;;
37855;SDS011;23694;43.274;26.924;2022-07-06T13:12:20;7.85;;;5.60;;
37855;SDS011;23694;43.274;26.924;2022-07-06T13:14:47;6.95;;;5.38;;
37855;SDS011;23694;43.274;26.924;2022-07-06T13:17:14;8.23;;;4.78;;
37855;SDS011;23694;43.274;26.924;2022-07-06T13:19:40;7.47;;;4.93;;
37855;SDS011;23694;43.274;26.924;2022-07-06T13:22:06;6.15;;;5.35;;
37855;SDS011;23694;43.274;26.924;2022-07-06T13:24:32;6.25;;;5.65;;
37855;SDS011;23694;43.274;26.924;2022-07-06T13:26:58;9.02;;;5.32;;
37855;SDS011;23694;43.274;26.924;2022-07-06T13:29:25;8.00;;;5.47;;
37855;SDS011;23694;43.274;26.924;2022-07-06T13:31:51;11.93;;;9.25;;
37855;SDS011;23694;43.274;26.924;2022-07-06T13:34:17;9.13;;;5.68;;
37855;SDS011;23694;43.274;26.924;2022-07-06T13:36:43;6.45;;;5.20;;
37855;SDS011;23694;43.274;26.924;2022-07-06T13:39:09;6.97;;;5.50;;
37855;SDS011;23694;43.274;26.924;2022-07-06T13:41:35;7.53;;;6.10;;
37855;SDS011;23694;43.274;26.924;2022-07-06T13:44:02;11.35;;;5.63;;
37855;SDS011;23694;43.274;26.924;2022-07-06T13:46:29;12.15;;;7.95;;
37855;SDS011;23694;43.274;26.924;2022-07-06T13:48:56;13.45;;;10.75;;
37855;SDS011;23694;43.274;26.924;2022-07-06T13:51:23;8.13;;;7.07;;
37855;SDS011;23694;43.274;26.924;2022-07-06T13:53:52;7.63;;;6.18;;
37855;SDS011;23694;43.274;26.924;2022-07-06T13:56:19;8.57;;;5.93;;
37855;SDS011;23694;43.274;26.924;2022-07-06T13:58:45;7.78;;;5.32;;
37855;SDS011;23694;43.274;26.924;2022-07-06T14:01:11;7.32;;;5.70;;
37855;SDS011;23694;43.274;26.924;2022-07-06T14:03:38;7.45;;;5.18;;
37855;SDS011;23694;43.274;26.924;2022-07-06T14:06:05;11.32;;;5.68;;
37855;SDS011;23694;43.274;26.924;2022-07-06T14:08:34;8.57;;;5.70;;
37855;SDS011;23694;43.274;26.924;2022-07-06T14:11:01;6.30;;;5.40;;
37855;SDS011;23694;43.274;26.924;2022-07-06T14:13:28;7.28;;;5.65;;
37855;SDS011;23694;43.274;26.924;2022-07-06T14:15:54;8.65;;;6.28;;
37855;SDS011;23694;43.274;26.924;2022-07-06T14:18:20;8.57;;;5.97;;
37855;SDS011;23694;43.274;26.924;2022-07-06T14:20:47;9.43;;;6.25;;
37855;SDS011;23694;43.274;26.924;2022-07-06T14:23:14;6.22;;;5.30;;
37855;SDS011;23694;43.274;26.924;2022-07-06T14:25:42;8.18;;;5.90;;
37855;SDS011;23694;43.274;26.924;2022-07-06T14:28:09;6.90;;;5.28;;
37855;SDS011;23694;43.274;26.924;2022-07-06T14:30:36;6.20;;;5.60;;
37855;SDS011;23694;43.274;26.924;2022-07-06T14:33:03;9.30;;;7.75;;
37855;SDS011;23694;43.274;26.924;2022-07-06T14:38:13;7.18;;;6.47;;
37855;SDS011;23694;43.274;26.924;2022-07-06T14:40:40;8.70;;;6.13;;
37855;SDS011;23694;43.274;26.924;2022-07-06T14:43:07;7.53;;;6.20;;
37855;SDS011;23694;43.274;26.924;2022-07-06T14:45:33;10.40;;;6.65;;
37855;SDS011;23694;43.274;26.924;2022-07-06T14:47:59;9.68;;;7.88;;
37855;SDS011;23694;43.274;26.924;2022-07-06T14:50:25;9.60;;;6.05;;
37855;SDS011;23694;43.274;26.924;2022-07-06T14:52:52;9.73;;;5.28;;
37855;SDS011;23694;43.274;26.924;2022-07-06T14:55:19;10.13;;;5.65;;
37855;SDS011;23694;43.274;26.924;2022-07-06T14:57:46;9.70;;;6.15;;